createdAt,value
2022-09-01T00:00:21.504Z,0.00
2022-09-01T00:01:21.413Z,0.00
2022-09-01T00:02:21.489Z,0.00
2022-09-01T00:03:21.391Z,0.00
2022-09-01T00:04:21.492Z,0.00
2022-09-01T00:05:21.391Z,0.00
2022-09-01T00:06:21.405Z,0.00
2022-09-01T00:07:21.400Z,0.00
2022-09-01T00:08:21.459Z,0.00
2022-09-01T00:09:21.324Z,0.00
2022-09-01T00:10:21.359Z,0.00
2022-09-01T00:11:21.301Z,0.00
2022-09-01T00:12:21.348Z,0.00
2022-09-01T00:13:21.288Z,0.00
2022-09-01T00:14:29.881Z,0.00
2022-09-01T00:15:22.280Z,0.00
2022-09-01T00:16:21.383Z,0.00
2022-09-01T00:17:21.236Z,0.00
2022-09-01T00:18:21.400Z,0.00
2022-09-01T00:19:21.231Z,0.00
2022-09-01T00:20:21.237Z,0.00
2022-09-01T00:21:21.189Z,0.00
2022-09-01T00:22:21.197Z,0.00
2022-09-01T00:23:21.175Z,0.00
2022-09-01T00:24:21.180Z,0.00
2022-09-01T00:25:21.167Z,0.00
2022-09-01T00:26:21.135Z,0.00
2022-09-01T00:27:21.127Z,0.00
2022-09-01T00:28:22.111Z,0.00
2022-09-01T00:29:22.115Z,0.00
2022-09-01T00:30:21.196Z,0.00
2022-09-01T00:31:21.204Z,0.00
2022-09-01T00:32:21.068Z,0.00
2022-09-01T00:33:21.131Z,0.00
2022-09-01T00:34:21.059Z,0.00
2022-09-01T00:35:21.083Z,0.00
2022-09-01T00:36:21.080Z,0.00
2022-09-01T00:37:21.010Z,0.00
2022-09-01T00:38:21.071Z,0.00
2022-09-01T00:39:20.996Z,0.00
2022-09-01T00:40:21.021Z,0.00
2022-09-01T00:41:21.019Z,0.00
2022-09-01T00:42:21.011Z,0.00
2022-09-01T00:43:20.944Z,0.00
2022-09-01T00:44:20.980Z,0.00
2022-09-01T00:45:20.924Z,0.00
2022-09-01T00:46:20.965Z,0.00
2022-09-01T00:47:20.910Z,0.00
2022-09-01T00:48:21.082Z,0.00
2022-09-01T00:49:20.874Z,0.00
2022-09-01T00:50:20.875Z,0.00
2022-09-01T00:51:20.888Z,0.00
2022-09-01T00:52:20.890Z,0.00
2022-09-01T00:53:20.868Z,0.00
2022-09-01T00:54:20.873Z,0.00
2022-09-01T00:55:20.808Z,0.00
2022-09-01T00:56:20.799Z,0.00
2022-09-01T00:57:20.798Z,0.00
2022-09-01T00:58:21.170Z,0.00
2022-09-01T00:59:20.771Z,0.00
2022-09-01T01:00:20.816Z,0.00
2022-09-01T01:01:20.817Z,0.00
2022-09-01T01:02:20.790Z,0.00
2022-09-01T01:03:20.760Z,0.00
2022-09-01T01:04:20.717Z,0.00
2022-09-01T01:05:20.713Z,0.00
2022-09-01T01:06:20.744Z,0.00
2022-09-01T01:07:20.685Z,0.00
2022-09-01T01:08:20.879Z,0.00
2022-09-01T01:09:20.652Z,0.00
2022-09-01T01:10:20.660Z,0.00
2022-09-01T01:11:20.632Z,0.00
2022-09-01T01:12:20.716Z,0.00
2022-09-01T01:13:20.607Z,0.00
2022-09-01T01:14:20.609Z,0.00
2022-09-01T01:15:20.589Z,0.00
2022-09-01T01:16:20.663Z,0.00
2022-09-01T01:17:20.593Z,0.00
2022-09-01T01:18:23.111Z,0.00
2022-09-01T01:19:20.538Z,0.00
2022-09-01T01:20:20.570Z,0.00
2022-09-01T01:21:20.528Z,0.00
2022-09-01T01:22:20.526Z,0.00
2022-09-01T01:23:20.493Z,0.00
2022-09-01T01:24:20.540Z,0.00
2022-09-01T01:25:20.511Z,0.00
2022-09-01T01:26:20.460Z,0.00
2022-09-01T01:27:20.454Z,0.00
2022-09-01T01:28:20.738Z,0.00
2022-09-01T01:29:20.427Z,0.00
2022-09-01T01:30:20.451Z,0.00
2022-09-01T01:31:20.531Z,0.00
2022-09-01T01:32:20.426Z,0.00
2022-09-01T01:33:20.406Z,0.00
2022-09-01T01:34:20.369Z,0.00
2022-09-01T01:35:20.364Z,0.00
2022-09-01T01:36:20.347Z,0.00
2022-09-01T01:37:20.364Z,0.00
2022-09-01T01:38:20.620Z,0.00
2022-09-01T01:39:20.344Z,0.00
2022-09-01T01:40:20.430Z,0.00
2022-09-01T01:41:20.304Z,0.00
2022-09-01T01:42:20.286Z,0.00
2022-09-01T01:43:20.335Z,0.00
2022-09-01T01:44:20.263Z,0.00
2022-09-01T01:45:20.245Z,0.00
2022-09-01T01:46:20.711Z,0.00
2022-09-01T01:47:20.223Z,0.00
2022-09-01T01:48:20.346Z,0.00
2022-09-01T01:49:20.236Z,0.00
2022-09-01T01:50:20.209Z,0.00
2022-09-01T01:51:20.180Z,0.00
2022-09-01T01:52:20.168Z,0.00
2022-09-01T01:53:21.188Z,0.00
2022-09-01T01:54:20.182Z,0.00
2022-09-01T01:55:20.147Z,0.00
2022-09-01T01:56:20.158Z,0.00
2022-09-01T01:57:20.111Z,0.00
2022-09-01T01:58:20.389Z,0.00
2022-09-01T01:59:20.129Z,0.00
2022-09-01T02:00:30.128Z,0.00
2022-09-01T02:01:21.179Z,0.00
2022-09-01T02:02:20.190Z,0.00
2022-09-01T02:03:20.051Z,0.00
2022-09-01T02:04:20.046Z,0.00
2022-09-01T02:05:20.040Z,0.00
2022-09-01T02:06:20.020Z,0.00
2022-09-01T02:07:20.013Z,0.00
2022-09-01T02:08:20.250Z,0.00
2022-09-01T02:09:20.002Z,0.00
2022-09-01T02:10:19.964Z,0.00
2022-09-01T02:11:19.954Z,0.00
2022-09-01T02:12:19.946Z,0.00
2022-09-01T02:13:19.953Z,0.00
2022-09-01T02:14:19.956Z,0.00
2022-09-01T02:15:19.927Z,0.00
2022-09-01T02:16:19.938Z,0.00
2022-09-01T02:17:19.886Z,0.00
2022-09-01T02:18:20.137Z,0.00
2022-09-01T02:19:19.901Z,0.00
2022-09-01T02:20:19.913Z,0.00
2022-09-01T02:21:19.846Z,0.00
2022-09-01T02:22:19.854Z,0.00
2022-09-01T02:23:19.825Z,0.00
2022-09-01T02:24:19.833Z,0.00
2022-09-01T02:25:19.795Z,0.00
2022-09-01T02:26:19.839Z,0.00
2022-09-01T02:27:19.773Z,0.00
2022-09-01T02:28:19.958Z,0.00
2022-09-01T02:29:19.787Z,0.00
2022-09-01T02:30:19.757Z,0.00
2022-09-01T02:31:19.728Z,0.00
2022-09-01T02:32:19.818Z,0.00
2022-09-01T02:33:19.713Z,0.00
2022-09-01T02:34:19.695Z,0.00
2022-09-01T02:35:19.693Z,0.00
2022-09-01T02:36:19.830Z,0.00
2022-09-01T02:37:19.673Z,0.00
2022-09-01T02:38:19.869Z,0.00
2022-09-01T02:39:19.653Z,0.00
2022-09-01T02:40:19.674Z,0.00
2022-09-01T02:41:19.638Z,0.00
2022-09-01T02:42:19.648Z,0.00
2022-09-01T02:43:19.604Z,0.00
2022-09-01T02:44:19.612Z,0.00
2022-09-01T02:45:19.571Z,0.00
2022-09-01T02:46:19.627Z,0.00
2022-09-01T02:47:19.583Z,0.00
2022-09-01T02:48:19.705Z,0.00
2022-09-01T02:49:19.529Z,0.00
2022-09-01T02:50:19.555Z,0.00
2022-09-01T02:51:19.538Z,0.00
2022-09-01T02:52:19.516Z,0.00
2022-09-01T02:53:19.488Z,0.00
2022-09-01T02:54:19.475Z,0.00
2022-09-01T02:55:19.459Z,0.00
2022-09-01T02:56:19.495Z,0.00
2022-09-01T02:57:19.468Z,0.00
2022-09-01T02:58:19.629Z,0.00
2022-09-01T02:59:19.416Z,0.00
2022-09-01T03:00:19.415Z,0.00
2022-09-01T03:01:19.502Z,0.00
2022-09-01T03:02:19.465Z,0.00
2022-09-01T03:03:19.382Z,0.00
2022-09-01T03:04:19.438Z,0.00
2022-09-01T03:05:19.348Z,0.00
2022-09-01T03:06:19.354Z,0.00
2022-09-01T03:07:19.367Z,0.00
2022-09-01T03:08:19.504Z,0.00
2022-09-01T03:09:19.313Z,0.00
2022-09-01T03:10:19.296Z,0.00
2022-09-01T03:11:20.313Z,0.00
2022-09-01T03:12:19.272Z,0.00
2022-09-01T03:13:19.280Z,0.00
2022-09-01T03:14:19.278Z,0.00
2022-09-01T03:15:19.248Z,0.00
2022-09-01T03:16:19.298Z,0.00
2022-09-01T03:17:19.223Z,0.00
2022-09-01T03:18:19.428Z,0.00
2022-09-01T03:19:19.236Z,0.00
2022-09-01T03:20:19.281Z,0.00
2022-09-01T03:21:19.192Z,0.00
2022-09-01T03:22:19.162Z,0.00
2022-09-01T03:23:19.541Z,0.00
2022-09-01T03:24:19.219Z,0.00
2022-09-01T03:25:19.157Z,0.00
2022-09-01T03:26:19.131Z,0.00
2022-09-01T03:27:19.143Z,0.00
2022-09-01T03:28:19.332Z,0.00
2022-09-01T03:29:19.125Z,0.00
2022-09-01T03:30:19.084Z,0.00
2022-09-01T03:31:19.087Z,0.00
2022-09-01T03:32:19.056Z,0.00
2022-09-01T03:33:19.089Z,0.00
2022-09-01T03:34:19.042Z,0.00
2022-09-01T03:35:19.042Z,0.00
2022-09-01T03:36:19.056Z,0.00
2022-09-01T03:37:19.001Z,0.00
2022-09-01T03:38:19.155Z,0.00
2022-09-01T03:39:19.048Z,0.00
2022-09-01T03:40:19.029Z,0.00
2022-09-01T03:41:18.953Z,0.00
2022-09-01T03:42:18.967Z,0.00
2022-09-01T03:43:18.941Z,0.00
2022-09-01T03:44:18.916Z,0.00
2022-09-01T03:45:18.980Z,0.00
2022-09-01T03:46:18.942Z,0.00
2022-09-01T03:47:18.899Z,0.00
2022-09-01T03:48:19.119Z,0.00
2022-09-01T03:49:18.879Z,0.00
2022-09-01T03:50:18.886Z,0.00
2022-09-01T03:51:18.885Z,0.00
2022-09-01T03:52:18.855Z,0.00
2022-09-01T03:53:18.828Z,0.00
2022-09-01T03:54:18.810Z,0.00
2022-09-01T03:55:18.851Z,0.00
2022-09-01T03:56:18.779Z,0.00
2022-09-01T03:57:18.821Z,0.00
2022-09-01T03:58:18.759Z,0.00
2022-09-01T03:59:18.744Z,0.00
2022-09-01T04:00:18.751Z,0.00
2022-09-01T04:01:18.866Z,0.00
2022-09-01T04:02:18.820Z,0.00
2022-09-01T04:03:18.769Z,0.00
2022-09-01T04:04:19.701Z,0.00
2022-09-01T04:05:18.682Z,0.00
2022-09-01T04:06:18.688Z,0.00
2022-09-01T04:07:19.161Z,0.00
2022-09-01T04:08:18.759Z,0.00
2022-09-01T04:09:18.707Z,0.00
2022-09-01T04:10:18.637Z,0.00
2022-09-01T04:11:18.780Z,0.00
2022-09-01T04:12:18.629Z,0.00
2022-09-01T04:13:18.587Z,0.00
2022-09-01T04:14:18.600Z,4.00
2022-09-01T04:15:18.599Z,4.00
2022-09-01T04:16:18.661Z,0.00
2022-09-01T04:17:18.562Z,4.00
2022-09-01T04:18:18.667Z,4.00
2022-09-01T04:19:18.572Z,4.00
2022-09-01T04:20:18.508Z,8.00
2022-09-01T04:21:18.510Z,8.00
2022-09-01T04:22:18.518Z,8.00
2022-09-01T04:23:18.502Z,8.00
2022-09-01T04:24:18.506Z,12.00
2022-09-01T04:25:18.453Z,12.00
2022-09-01T04:26:18.440Z,12.00
2022-09-01T04:27:18.520Z,16.00
2022-09-01T04:28:18.582Z,16.00
2022-09-01T04:29:18.436Z,16.00
2022-09-01T04:30:18.395Z,16.00
2022-09-01T04:31:18.494Z,20.00
2022-09-01T04:32:18.383Z,20.00
2022-09-01T04:33:18.364Z,24.00
2022-09-01T04:34:18.410Z,28.00
2022-09-01T04:35:18.380Z,24.00
2022-09-01T04:36:18.330Z,28.00
2022-09-01T04:37:18.383Z,32.00
2022-09-01T04:38:18.466Z,32.00
2022-09-01T04:39:18.303Z,32.00
2022-09-01T04:40:18.368Z,36.00
2022-09-01T04:41:18.275Z,36.00
2022-09-01T04:42:18.264Z,36.00
2022-09-01T04:43:18.290Z,36.00
2022-09-01T04:44:18.255Z,44.00
2022-09-01T04:45:20.698Z,44.00
2022-09-01T04:46:18.330Z,44.00
2022-09-01T04:47:18.245Z,48.00
2022-09-01T04:48:18.246Z,52.00
2022-09-01T04:49:18.188Z,60.00
2022-09-01T04:50:18.245Z,64.00
2022-09-01T04:51:18.178Z,64.00
2022-09-01T04:52:18.204Z,68.00
2022-09-01T04:53:18.180Z,68.00
2022-09-01T04:54:18.128Z,76.00
2022-09-01T04:55:18.338Z,76.00
2022-09-01T04:56:18.142Z,76.00
2022-09-01T04:57:18.103Z,76.00
2022-09-01T04:58:18.152Z,72.00
2022-09-01T04:59:18.082Z,80.00
2022-09-01T05:00:18.059Z,88.00
2022-09-01T05:01:18.185Z,92.00
2022-09-01T05:02:18.118Z,92.00
2022-09-01T05:03:18.041Z,96.00
2022-09-01T05:04:18.016Z,96.00
2022-09-01T05:05:18.056Z,100.00
2022-09-01T05:06:17.998Z,104.00
2022-09-01T05:07:18.017Z,116.00
2022-09-01T05:08:23.379Z,140.00
2022-09-01T05:09:18.970Z,140.00
2022-09-01T05:10:17.954Z,132.00
2022-09-01T05:11:17.999Z,132.00
2022-09-01T05:12:17.938Z,152.00
2022-09-01T05:13:17.952Z,176.00
2022-09-01T05:14:17.911Z,180.00
2022-09-01T05:15:17.892Z,184.00
2022-09-01T05:16:21.489Z,164.00
2022-09-01T05:17:18.907Z,156.00
2022-09-01T05:18:17.886Z,156.00
2022-09-01T05:19:17.858Z,160.00
2022-09-01T05:20:17.856Z,172.00
2022-09-01T05:21:17.871Z,184.00
2022-09-01T05:22:25.757Z,208.00
2022-09-01T05:23:17.845Z,208.00
2022-09-01T05:24:17.822Z,200.00
2022-09-01T05:25:17.804Z,188.00
2022-09-01T05:26:17.769Z,200.00
2022-09-01T05:27:17.803Z,232.00
2022-09-01T05:28:17.862Z,240.00
2022-09-01T05:29:17.778Z,244.00
2022-09-01T05:30:17.769Z,240.00
2022-09-01T05:31:17.753Z,228.00
2022-09-01T05:32:17.707Z,208.00
2022-09-01T05:33:21.650Z,200.00
2022-09-01T05:34:17.684Z,196.00
2022-09-01T05:35:17.699Z,196.00
2022-09-01T05:36:17.668Z,200.00
2022-09-01T05:37:17.661Z,196.00
2022-09-01T05:38:17.634Z,192.00
2022-09-01T05:39:17.720Z,192.00
2022-09-01T05:40:17.671Z,196.00
2022-09-01T05:41:17.602Z,192.00
2022-09-01T05:42:17.605Z,200.00
2022-09-01T05:43:17.578Z,212.00
2022-09-01T05:44:17.572Z,228.00
2022-09-01T05:45:17.580Z,260.00
2022-09-01T05:46:17.625Z,296.00
2022-09-01T05:47:21.055Z,320.00
2022-09-01T05:48:17.536Z,344.00
2022-09-01T05:49:17.513Z,348.00
2022-09-01T05:50:17.514Z,352.00
2022-09-01T05:51:40.219Z,364.00
2022-09-01T05:52:19.154Z,372.00
2022-09-01T05:53:17.476Z,384.00
2022-09-01T05:54:17.475Z,384.00
2022-09-01T05:55:17.446Z,384.00
2022-09-01T05:56:17.436Z,368.00
2022-09-01T05:57:33.744Z,364.00
2022-09-01T05:58:18.605Z,372.00
2022-09-01T05:59:25.894Z,376.00
2022-09-01T06:00:18.404Z,380.00
2022-09-01T06:01:17.383Z,372.00
2022-09-01T06:02:17.529Z,388.00
2022-09-01T06:03:17.571Z,416.00
2022-09-01T06:04:17.347Z,444.00
2022-09-01T06:05:17.363Z,444.00
2022-09-01T06:06:17.326Z,424.00
2022-09-01T06:07:17.321Z,412.00
2022-09-01T06:08:17.300Z,404.00
2022-09-01T06:09:17.304Z,396.00
2022-09-01T06:10:17.307Z,392.00
2022-09-01T06:11:17.293Z,384.00
2022-09-01T06:12:18.160Z,376.00
2022-09-01T06:13:17.328Z,368.00
2022-09-01T06:14:17.723Z,372.00
2022-09-01T06:15:17.222Z,388.00
2022-09-01T06:16:17.258Z,404.00
2022-09-01T06:17:17.232Z,404.00
2022-09-01T06:18:17.192Z,408.00
2022-09-01T06:19:17.189Z,420.00
2022-09-01T06:20:17.185Z,436.00
2022-09-01T06:21:17.190Z,448.00
2022-09-01T06:22:17.160Z,472.00
2022-09-01T06:23:17.187Z,504.00
2022-09-01T06:24:17.133Z,512.00
2022-09-01T06:25:17.223Z,504.00
2022-09-01T06:26:17.106Z,508.00
2022-09-01T06:27:17.123Z,528.00
2022-09-01T06:28:17.101Z,544.00
2022-09-01T06:29:17.065Z,568.00
2022-09-01T06:30:22.583Z,572.00
2022-09-01T06:31:18.104Z,564.00
2022-09-01T06:32:17.032Z,564.00
2022-09-01T06:33:17.076Z,548.00
2022-09-01T06:34:17.007Z,536.00
2022-09-01T06:35:17.003Z,516.00
2022-09-01T06:36:16.984Z,512.00
2022-09-01T06:37:16.988Z,512.00
2022-09-01T06:38:16.965Z,520.00
2022-09-01T06:39:16.983Z,528.00
2022-09-01T06:40:17.021Z,532.00
2022-09-01T06:41:16.953Z,548.00
2022-09-01T06:42:16.930Z,560.00
2022-09-01T06:43:16.951Z,556.00
2022-09-01T06:44:16.936Z,556.00
2022-09-01T06:45:16.914Z,556.00
2022-09-01T06:46:16.902Z,552.00
2022-09-01T06:47:16.884Z,548.00
2022-09-01T06:48:17.689Z,520.00
2022-09-01T06:49:16.841Z,548.00
2022-09-01T06:51:15.472Z,552.00
2022-09-01T06:51:20.532Z,552.00
2022-09-01T06:52:16.818Z,544.00
2022-09-01T06:53:32.888Z,544.00
2022-09-01T06:54:20.773Z,544.00
2022-09-01T06:55:16.813Z,556.00
2022-09-01T06:56:16.782Z,560.00
2022-09-01T06:58:17.805Z,580.00
2022-09-01T06:59:16.729Z,592.00
2022-09-01T07:00:16.735Z,604.00
2022-09-01T07:01:16.786Z,604.00
2022-09-01T07:02:17.885Z,604.00
2022-09-01T07:03:16.772Z,592.00
2022-09-01T07:04:16.696Z,604.00
2022-09-01T07:08:17.852Z,728.00
2022-09-01T07:09:20.298Z,764.00
2022-09-01T07:10:21.090Z,768.00
2022-09-01T07:11:22.022Z,812.00
2022-09-01T07:13:17.575Z,852.00
2022-09-01T07:14:16.592Z,860.00
2022-09-01T07:16:36.333Z,876.00
2022-09-01T07:17:24.823Z,924.00
2022-09-01T07:18:17.581Z,828.00
2022-09-01T07:19:16.518Z,908.00
2022-09-01T07:20:24.643Z,784.00
2022-09-01T07:23:17.483Z,960.00
2022-09-01T07:24:16.467Z,888.00
2022-09-01T07:25:16.816Z,916.00
2022-09-01T07:26:24.566Z,832.00
2022-09-01T07:27:17.429Z,868.00
2022-09-01T07:28:16.445Z,720.00
2022-09-01T07:29:16.398Z,640.00
2022-09-01T07:30:16.404Z,528.00
2022-09-01T07:35:17.355Z,644.00
2022-09-01T07:36:31.696Z,824.00
2022-09-01T07:38:47.774Z,1072.00
2022-09-01T07:43:17.237Z,1384.00
2022-09-01T07:44:16.225Z,1400.00
2022-09-01T07:45:31.603Z,1448.00
2022-09-01T07:47:51.926Z,1464.00
2022-09-01T07:48:36.076Z,1492.00
2022-09-01T07:49:52.410Z,1440.00
2022-09-01T07:52:17.164Z,1452.00
2022-09-01T07:53:17.172Z,1396.00
2022-09-01T07:54:16.114Z,1328.00
2022-09-01T07:55:16.121Z,1280.00
2022-09-01T07:56:16.103Z,1296.00
2022-09-01T07:57:16.105Z,1296.00
2022-09-01T07:58:16.106Z,1304.00
2022-09-01T07:59:16.091Z,1268.00
2022-09-01T08:00:16.051Z,1224.00
2022-09-01T08:01:16.053Z,1184.00
2022-09-01T08:02:16.138Z,1184.00
2022-09-01T08:03:16.083Z,1184.00
2022-09-01T08:04:16.019Z,1204.00
2022-09-01T08:05:16.024Z,1260.00
2022-09-01T08:06:15.990Z,1256.00
2022-09-01T08:07:16.264Z,1128.00
2022-09-01T08:08:19.412Z,960.00
2022-09-01T08:09:32.759Z,908.00
2022-09-01T08:10:20.161Z,756.00
2022-09-01T08:11:15.927Z,660.00
2022-09-01T08:12:15.964Z,552.00
2022-09-01T08:13:15.909Z,488.00
2022-09-01T08:14:18.209Z,492.00
2022-09-01T08:16:05.953Z,584.00
2022-09-01T08:16:18.212Z,784.00
2022-09-01T08:17:17.739Z,708.00
2022-09-01T08:18:16.903Z,644.00
2022-09-01T08:19:16.975Z,728.00
2022-09-01T08:20:15.843Z,632.00
2022-09-01T08:21:15.852Z,580.00
2022-09-01T08:22:15.825Z,564.00
2022-09-01T08:23:15.829Z,472.00
2022-09-01T08:24:15.782Z,460.00
2022-09-01T08:25:15.815Z,476.00
2022-09-01T08:26:15.759Z,480.00
2022-09-01T08:27:15.806Z,496.00
2022-09-01T08:28:15.736Z,644.00
2022-09-01T08:29:15.774Z,568.00
2022-09-01T08:30:15.716Z,564.00
2022-09-01T08:31:15.754Z,652.00
2022-09-01T08:32:15.699Z,580.00
2022-09-01T08:33:15.720Z,676.00
2022-09-01T08:34:15.715Z,736.00
2022-09-01T08:35:15.671Z,952.00
2022-09-01T08:36:18.907Z,1072.00
2022-09-01T08:37:16.667Z,1072.00
2022-09-01T08:38:15.673Z,1160.00
2022-09-01T08:39:15.706Z,1336.00
2022-09-01T08:40:15.670Z,1404.00
2022-09-01T08:41:15.592Z,1420.00
2022-09-01T08:42:15.587Z,1408.00
2022-09-01T08:43:15.769Z,1352.00
2022-09-01T08:44:15.579Z,1288.00
2022-09-01T08:45:15.608Z,1128.00
2022-09-01T08:46:15.631Z,1164.00
2022-09-01T08:47:15.778Z,1216.00
2022-09-01T08:49:02.664Z,1032.00
2022-09-01T08:49:42.987Z,960.00
2022-09-01T08:50:16.540Z,856.00
2022-09-01T08:51:19.974Z,720.00
2022-09-01T08:52:16.475Z,624.00
2022-09-01T08:53:15.459Z,868.00
2022-09-01T08:54:15.472Z,1252.00
2022-09-01T08:55:15.450Z,1324.00
2022-09-01T08:56:15.438Z,1208.00
2022-09-01T08:57:15.475Z,1112.00
2022-09-01T08:58:15.404Z,928.00
2022-09-01T08:59:15.434Z,768.00
2022-09-01T09:00:15.492Z,656.00
2022-09-01T09:01:17.464Z,576.00
2022-09-01T09:02:16.490Z,508.00
2022-09-01T09:03:15.486Z,444.00
2022-09-01T09:04:15.337Z,448.00
2022-09-01T09:05:15.825Z,376.00
2022-09-01T09:06:15.317Z,324.00
2022-09-01T09:07:15.327Z,340.00
2022-09-01T09:08:15.296Z,336.00
2022-09-01T09:09:15.328Z,304.00
2022-09-01T09:10:15.272Z,284.00
2022-09-01T09:11:15.274Z,304.00
2022-09-01T09:12:15.255Z,372.00
2022-09-01T09:13:15.261Z,532.00
2022-09-01T09:14:15.703Z,788.00
2022-09-01T09:15:15.241Z,952.00
2022-09-01T09:16:15.233Z,960.00
2022-09-01T09:17:15.195Z,904.00
2022-09-01T09:18:20.139Z,812.00
2022-09-01T09:19:16.358Z,860.00
2022-09-01T09:20:15.169Z,992.00
2022-09-01T09:21:15.210Z,1116.00
2022-09-01T09:22:15.159Z,1076.00
2022-09-01T09:23:15.166Z,1264.00
2022-09-01T09:24:20.791Z,1424.00
2022-09-01T09:25:19.383Z,1640.00
2022-09-01T09:26:16.677Z,1464.00
2022-09-01T09:27:16.398Z,1536.00
2022-09-01T09:28:15.084Z,1484.00
2022-09-01T09:29:15.065Z,1320.00
2022-09-01T09:30:15.113Z,1288.00
2022-09-01T09:31:15.078Z,1488.00
2022-09-01T09:32:50.387Z,1436.00
2022-09-01T09:33:51.389Z,1288.00
2022-09-01T09:34:16.009Z,1120.00
2022-09-01T09:35:15.009Z,1040.00
2022-09-01T09:36:15.001Z,1172.00
2022-09-01T09:37:14.980Z,1276.00
2022-09-01T09:38:14.986Z,1324.00
2022-09-01T09:39:16.559Z,1364.00
2022-09-01T09:40:15.241Z,1324.00
2022-09-01T09:41:18.230Z,1308.00
2022-09-01T09:42:15.211Z,1324.00
2022-09-01T09:43:15.527Z,1328.00
2022-09-01T09:44:14.892Z,1352.00
2022-09-01T09:45:14.912Z,1416.00
2022-09-01T09:46:30.048Z,1480.00
2022-09-01T09:47:40.349Z,1528.00
2022-09-01T09:48:15.875Z,1500.00
2022-09-01T09:49:14.834Z,1468.00
2022-09-01T09:50:14.825Z,1340.00
2022-09-01T09:51:14.840Z,1192.00
2022-09-01T09:52:16.451Z,1044.00
2022-09-01T09:53:14.809Z,904.00
2022-09-01T09:54:14.788Z,708.00
2022-09-01T09:55:14.768Z,976.00
2022-09-01T09:56:14.804Z,944.00
2022-09-01T09:57:14.763Z,984.00
2022-09-01T09:58:14.751Z,1188.00
2022-09-01T09:59:14.723Z,1240.00
2022-09-01T10:00:14.758Z,1124.00
2022-09-01T10:01:14.789Z,1248.00
2022-09-01T10:02:14.716Z,1240.00
2022-09-01T10:03:14.811Z,1292.00
2022-09-01T10:04:14.840Z,1180.00
2022-09-01T10:05:14.659Z,1180.00
2022-09-01T10:06:14.668Z,1336.00
2022-09-01T10:07:14.634Z,1328.00
2022-09-01T10:08:14.638Z,1436.00
2022-09-01T10:09:14.635Z,1572.00
2022-09-01T10:10:14.619Z,1436.00
2022-09-01T10:11:14.631Z,1512.00
2022-09-01T10:12:14.591Z,1616.00
2022-09-01T10:13:14.766Z,1472.00
2022-09-01T10:14:26.108Z,1240.00
2022-09-01T10:15:15.577Z,1248.00
2022-09-01T10:16:14.635Z,1308.00
2022-09-01T10:17:15.887Z,1276.00
2022-09-01T10:18:20.521Z,1256.00
2022-09-01T10:19:16.292Z,1360.00
2022-09-01T10:20:14.492Z,1304.00
2022-09-01T10:21:14.514Z,1408.00
2022-09-01T10:22:15.250Z,1396.00
2022-09-01T10:23:15.335Z,1308.00
2022-09-01T10:24:20.536Z,1192.00
2022-09-01T10:25:15.455Z,1132.00
2022-09-01T10:26:14.431Z,1204.00
2022-09-01T10:27:15.410Z,1164.00
2022-09-01T10:28:20.912Z,952.00
2022-09-01T10:29:15.862Z,908.00
2022-09-01T10:30:18.757Z,940.00
2022-09-01T10:31:15.451Z,1132.00
2022-09-01T10:32:34.650Z,1140.00
2022-09-01T10:33:19.858Z,1284.00
2022-09-01T10:34:19.262Z,1320.00
2022-09-01T10:35:14.550Z,1216.00
2022-09-01T10:36:14.324Z,1324.00
2022-09-01T10:37:16.142Z,1376.00
2022-09-01T10:38:14.296Z,1208.00
2022-09-01T10:39:14.281Z,972.00
2022-09-01T10:40:14.849Z,956.00
2022-09-01T10:41:15.842Z,992.00
2022-09-01T10:42:14.266Z,1040.00
2022-09-01T10:43:14.271Z,1128.00
2022-09-01T10:44:14.233Z,1244.00
2022-09-01T10:45:14.230Z,1228.00
2022-09-01T10:46:15.667Z,1416.00
2022-09-01T10:47:14.509Z,1484.00
2022-09-01T10:48:14.817Z,1324.00
2022-09-01T10:49:14.366Z,1308.00
2022-09-01T10:50:14.200Z,1292.00
2022-09-01T10:51:18.507Z,1296.00
2022-09-01T10:52:16.219Z,1476.00
2022-09-01T10:53:17.282Z,1444.00
2022-09-01T10:54:14.143Z,1260.00
2022-09-01T10:55:14.113Z,976.00
2022-09-01T10:56:20.142Z,860.00
2022-09-01T10:57:15.107Z,892.00
2022-09-01T10:59:31.068Z,956.00
2022-09-01T10:59:31.567Z,1104.00
2022-09-01T11:01:24.879Z,1180.00
2022-09-01T11:02:35.919Z,1236.00
2022-09-01T11:03:31.413Z,1216.00
2022-09-01T11:04:15.098Z,1192.00
2022-09-01T11:05:14.116Z,1236.00
2022-09-01T11:06:13.989Z,1416.00
2022-09-01T11:07:14.285Z,1320.00
2022-09-01T11:08:15.634Z,1276.00
2022-09-01T11:09:13.939Z,1276.00
2022-09-01T11:10:31.454Z,1280.00
2022-09-01T11:11:14.946Z,1348.00
2022-09-01T11:12:13.924Z,1516.00
2022-09-01T11:13:13.960Z,1592.00
2022-09-01T11:14:13.887Z,1592.00
2022-09-01T11:15:13.874Z,1668.00
2022-09-01T11:16:14.119Z,1736.00
2022-09-01T11:17:13.934Z,1728.00
2022-09-01T11:18:14.635Z,1628.00
2022-09-01T11:19:16.154Z,1444.00
2022-09-01T11:20:13.857Z,1288.00
2022-09-01T11:21:13.806Z,1252.00
2022-09-01T11:22:13.814Z,1292.00
2022-09-01T11:23:14.903Z,1420.00
2022-09-01T11:24:14.115Z,1520.00
2022-09-01T11:25:13.877Z,1620.00
2022-09-01T11:26:20.900Z,1816.00
2022-09-01T11:27:14.746Z,1832.00
2022-09-01T11:28:13.730Z,1712.00
2022-09-01T11:29:13.734Z,1624.00
2022-09-01T11:30:13.707Z,1656.00
2022-09-01T11:31:13.744Z,1720.00
2022-09-01T11:32:13.743Z,1908.00
2022-09-01T11:33:13.683Z,1964.00
2022-09-01T11:34:13.665Z,1948.00
2022-09-01T11:35:13.661Z,1964.00
2022-09-01T11:36:13.639Z,1976.00
2022-09-01T11:37:13.650Z,1948.00
2022-09-01T11:38:13.653Z,1952.00
2022-09-01T11:39:13.624Z,1908.00
2022-09-01T11:40:13.658Z,1924.00
2022-09-01T11:41:13.610Z,1896.00
2022-09-01T11:42:13.616Z,1944.00
2022-09-01T11:43:13.586Z,1876.00
2022-09-01T11:44:13.583Z,1760.00
2022-09-01T11:45:20.562Z,1616.00
2022-09-01T11:46:14.635Z,1756.00
2022-09-01T11:47:14.575Z,1932.00
2022-09-01T11:48:13.547Z,2012.00
2022-09-01T11:49:13.493Z,2056.00
2022-09-01T11:50:13.508Z,2064.00
2022-09-01T11:51:14.718Z,2032.00
2022-09-01T11:52:13.473Z,1876.00
2022-09-01T11:53:13.478Z,1964.00
2022-09-01T11:54:13.440Z,2036.00
2022-09-01T11:55:13.497Z,2060.00
2022-09-01T11:56:13.435Z,2088.00
2022-09-01T11:57:13.438Z,2064.00
2022-09-01T11:58:17.608Z,2080.00
2022-09-01T11:59:13.489Z,2104.00
2022-09-01T12:00:13.374Z,2128.00
2022-09-01T12:01:13.359Z,2044.00
2022-09-01T12:02:13.489Z,2044.00
2022-09-01T12:03:13.510Z,2020.00
2022-09-01T12:04:13.375Z,1896.00
2022-09-01T12:05:13.355Z,1992.00
2022-09-01T12:06:13.303Z,1948.00
2022-09-01T12:07:13.300Z,1744.00
2022-09-01T12:08:13.316Z,1808.00
2022-09-01T12:09:13.281Z,1748.00
2022-09-01T12:10:13.319Z,1504.00
2022-09-01T12:11:13.292Z,1540.00
2022-09-01T12:12:13.301Z,1688.00
2022-09-01T12:13:13.256Z,1684.00
2022-09-01T12:14:13.242Z,1672.00
2022-09-01T12:15:13.789Z,1628.00
2022-09-01T12:16:20.428Z,1680.00
2022-09-01T12:17:14.268Z,1760.00
2022-09-01T12:18:13.171Z,1676.00
2022-09-01T12:19:13.186Z,1616.00
2022-09-01T12:20:13.159Z,1628.00
2022-09-01T12:21:13.159Z,1652.00
2022-09-01T12:22:13.210Z,1684.00
2022-09-01T12:23:13.161Z,1780.00
2022-09-01T12:24:13.110Z,1808.00
2022-09-01T12:25:13.092Z,1836.00
2022-09-01T12:26:13.103Z,1844.00
2022-09-01T12:27:13.091Z,1820.00
2022-09-01T12:28:13.059Z,1804.00
2022-09-01T12:29:13.071Z,1824.00
2022-09-01T12:30:13.050Z,1872.00
2022-09-01T12:31:13.095Z,1904.00
2022-09-01T12:32:13.163Z,1924.00
2022-09-01T12:33:28.289Z,1920.00
2022-09-01T12:34:13.997Z,1984.00
2022-09-01T12:35:12.988Z,1992.00
2022-09-01T12:36:12.989Z,1972.00
2022-09-01T12:37:13.008Z,1924.00
2022-09-01T12:38:13.003Z,1856.00
2022-09-01T12:39:12.936Z,1832.00
2022-09-01T12:40:12.949Z,1820.00
2022-09-01T12:41:12.973Z,1820.00
2022-09-01T12:42:12.904Z,1816.00
2022-09-01T12:43:12.936Z,1800.00
2022-09-01T12:44:12.917Z,1832.00
2022-09-01T12:45:12.869Z,1800.00
2022-09-01T12:46:12.894Z,1720.00
2022-09-01T12:47:12.971Z,1648.00
2022-09-01T12:48:12.872Z,1580.00
2022-09-01T12:49:12.836Z,1556.00
2022-09-01T12:50:12.846Z,1588.00
2022-09-01T12:51:12.804Z,1608.00
2022-09-01T12:52:14.729Z,1644.00
2022-09-01T12:53:12.862Z,1576.00
2022-09-01T12:54:12.793Z,1504.00
2022-09-01T12:55:13.347Z,1584.00
2022-09-01T12:56:12.787Z,1668.00
2022-09-01T12:57:12.737Z,1680.00
2022-09-01T12:58:12.765Z,1712.00
2022-09-01T12:59:15.577Z,1812.00